Time;durP1;ratioP1;P1;durP2;ratioP2;P2;SDS_P1;SDS_P2;PMS_P1;PMS_P2;Temp;Humidity;BMP_temperature;BMP_pressure;BME280_temperature;BME280_humidity;BME280_pressure;Samples;Min_cycle;Max_cycle;Signal;HPM_P1;HPM_P2
2023/02/05 00:02:08;;;;;;;4.00;2.90;;;;;;;-2.72;70.65;100586.98;105500;1260;65505;-77
2023/02/05 00:04:35;;;;;;;4.50;3.30;;;;;;;-2.73;70.70;100585.81;105626;1263;59726;-77
2023/02/05 00:07:02;;;;;;;4.30;3.20;;;;;;;-2.75;70.62;100582.77;105745;1261;59628;-77
2023/02/05 00:09:30;;;;;;;5.50;3.30;;;;;;;-2.78;70.73;100586.11;105672;1257;65580;-76
2023/02/05 00:11:58;;;;;;;4.60;3.50;;;;;;;-2.79;70.71;100587.86;105742;1257;60021;-76
2023/02/05 00:14:25;;;;;;;4.50;3.50;;;;;;;-2.81;70.86;100588.92;105701;1257;65557;-76
2023/02/05 00:16:52;;;;;;;4.50;3.20;;;;;;;-2.82;70.91;100585.66;105699;1258;60013;-78
2023/02/05 00:19:19;;;;;;;4.70;3.50;;;;;;;-2.81;71.03;100588.40;105464;1260;59611;-77
2023/02/05 00:21:45;;;;;;;4.60;3.40;;;;;;;-2.82;71.12;100590.67;105734;1257;65722;-77
2023/02/05 00:24:14;;;;;;;4.50;3.30;;;;;;;-2.82;71.03;100592.40;105785;1260;60251;-77
2023/02/05 00:26:41;;;;;;;5.10;3.60;;;;;;;-2.83;71.07;100594.14;105587;1263;65747;-77
2023/02/05 00:29:08;;;;;;;5.00;3.50;;;;;;;-2.84;71.05;100593.47;105668;1261;59637;-77
2023/02/05 00:31:34;;;;;;;4.60;3.50;;;;;;;-2.84;71.09;100598.14;105787;1257;59608;-77
2023/02/05 00:34:01;;;;;;;6.00;4.20;;;;;;;-2.84;71.23;100594.86;105699;1260;65858;-78
2023/02/05 00:36:28;;;;;;;5.50;3.60;;;;;;;-2.84;71.25;100593.99;105593;1257;61482;-77
2023/02/05 00:38:55;;;;;;;6.20;3.90;;;;;;;-2.85;71.16;100598.67;105525;1264;64425;-77
2023/02/05 00:41:22;;;;;;;4.40;3.30;;;;;;;-2.86;71.23;100596.98;105802;1260;60308;-77
2023/02/05 00:43:49;;;;;;;5.40;3.80;;;;;;;-2.87;71.26;100602.84;105661;1257;59717;-77
2023/02/05 00:46:15;;;;;;;5.00;3.90;;;;;;;-2.89;71.28;100608.92;105701;1260;65833;-77
2023/02/05 00:48:42;;;;;;;6.50;4.20;;;;;;;-2.90;71.36;100609.77;105492;1257;59883;-77
2023/02/05 00:51:09;;;;;;;5.00;3.80;;;;;;;-2.89;71.39;100607.89;105688;1257;65886;-77
2023/02/05 00:53:36;;;;;;;5.90;3.70;;;;;;;-2.88;71.46;100610.10;105637;1263;59615;-78
2023/02/05 00:56:04;;;;;;;4.10;3.40;;;;;;;-2.86;71.62;100607.84;105865;1257;59721;-77
2023/02/05 00:58:33;;;;;;;5.80;3.60;;;;;;;-2.84;71.62;100606.57;105755;1259;65832;-77
2023/02/05 01:01:00;;;;;;;6.10;3.80;;;;;;;-2.82;71.74;100608.07;105874;1259;60001;-76
2023/02/05 01:03:26;;;;;;;5.20;3.50;;;;;;;-2.81;71.70;100609.26;105839;1254;65635;-76
2023/02/05 01:05:53;;;;;;;5.10;3.90;;;;;;;-2.80;71.84;100606.50;105936;1257;59649;-77
2023/02/05 01:08:20;;;;;;;5.60;3.80;;;;;;;-2.80;71.88;100609.42;105665;1258;59770;-76
2023/02/05 01:10:48;;;;;;;6.50;4.00;;;;;;;-2.82;71.83;100605.66;105962;1254;65776;-76
2023/02/05 01:13:15;;;;;;;4.60;3.80;;;;;;;-2.82;71.80;100607.56;105971;1256;59525;-77
2023/02/05 01:15:44;;;;;;;5.90;4.10;;;;;;;-2.82;71.88;100607.05;105778;1254;65598;-77
2023/02/05 01:18:15;;;;;;;5.30;4.10;;;;;;;-2.80;71.91;100609.60;105892;1252;59612;-77
2023/02/05 01:20:42;;;;;;;5.70;3.80;;;;;;;-2.79;71.95;100607.16;106189;1254;60819;-77
2023/02/05 01:23:09;;;;;;;4.90;4.10;;;;;;;-2.79;71.94;100606.98;106062;1253;65948;-77
2023/02/05 01:25:38;;;;;;;6.50;4.20;;;;;;;-2.82;71.87;100605.84;106140;1256;59948;-77
2023/02/05 01:28:05;;;;;;;5.50;4.10;;;;;;;-2.86;71.83;100604.90;106039;1254;65674;-77
2023/02/05 01:30:33;;;;;;;6.40;4.30;;;;;;;-2.87;71.86;100604.06;105921;1254;59596;-77
2023/02/05 01:33:00;;;;;;;5.90;4.40;;;;;;;-2.88;71.97;100602.52;106015;1254;59537;-77
2023/02/05 01:35:28;;;;;;;5.80;4.50;;;;;;;-2.89;71.99;100600.99;105903;1255;65788;-78
2023/02/05 01:37:55;;;;;;;5.50;3.90;;;;;;;-2.89;71.98;100602.02;105792;1253;59547;-77
2023/02/05 01:40:21;;;;;;;5.10;4.50;;;;;;;-2.91;71.97;100601.37;106065;1256;64608;-77
2023/02/05 01:42:50;;;;;;;5.50;4.30;;;;;;;-2.93;72.13;100605.37;105865;1257;59721;-77
2023/02/05 01:45:20;;;;;;;7.60;4.70;;;;;;;-2.93;72.13;100605.90;105775;1254;59709;-78
2023/02/05 01:47:49;;;;;;;5.10;4.20;;;;;;;-2.93;72.14;100611.74;106138;1252;66158;-78
2023/02/05 01:50:16;;;;;;;5.80;4.30;;;;;;;-2.92;72.16;100616.02;105935;1254;59531;-78
2023/02/05 01:52:43;;;;;;;7.60;4.80;;;;;;;-2.91;72.20;100613.59;106047;1254;65361;-78
2023/02/05 01:55:10;;;;;;;5.70;4.60;;;;;;;-2.89;72.27;100617.86;105820;1254;59615;-79
2023/02/05 01:57:38;;;;;;;6.50;4.30;;;;;;;-2.87;72.30;100616.83;105922;1254;59788;-77
2023/02/05 02:00:05;;;;;;;5.90;4.60;;;;;;;-2.88;72.24;100618.38;105845;1253;66006;-76
2023/02/05 02:02:41;;;;;;;6.80;4.60;;;;;;;-2.88;72.36;100618.89;105917;1254;59724;-77
2023/02/05 02:05:10;;;;;;;5.70;4.50;;;;;;;-2.87;72.37;100620.77;106055;1254;65298;-78
2023/02/05 02:07:40;;;;;;;6.70;4.80;;;;;;;-2.89;72.35;100619.08;106097;1253;60552;-78
2023/02/05 02:10:08;;;;;;;6.70;4.70;;;;;;;-2.92;72.36;100618.27;105950;1254;59606;-76
2023/02/05 02:12:37;;;;;;;6.10;4.60;;;;;;;-2.92;72.46;100618.96;106064;1254;65746;-77
2023/02/05 02:15:06;;;;;;;6.40;4.30;;;;;;;-2.91;72.49;100619.63;105886;1257;59963;-77
2023/02/05 02:17:38;;;;;;;5.30;4.60;;;;;;;-2.90;72.49;100622.88;106041;1256;65675;-77
2023/02/05 02:20:06;;;;;;;6.20;4.50;;;;;;;-2.89;72.68;100626.49;106250;1254;59654;-77
2023/02/05 02:22:46;;;;;;;6.10;5.00;;;;;;;-2.87;72.62;100624.91;105841;1254;59752;-77
2023/02/05 02:25:32;;;;;;;7.20;4.80;;;;;;;-2.86;72.67;100619.89;105784;1254;66038;-77
2023/02/05 02:28:13;;;;;;;7.40;4.20;;;;;;;-2.86;72.62;100616.95;105989;1254;59843;-76
2023/02/05 02:30:56;;;;;;;6.70;4.60;;;;;;;-2.86;72.70;100617.64;105936;1254;65678;-77
2023/02/05 02:33:50;;;;;;;7.60;5.10;;;;;;;-2.85;72.63;100616.08;105672;1256;59542;-77
2023/02/05 02:36:22;;;;;;;6.90;5.10;;;;;;;-2.85;72.68;100612.80;105902;1253;59688;-77
2023/02/05 02:38:54;;;;;;;5.60;4.40;;;;;;;-2.86;72.61;100611.46;105883;1257;65906;-77
2023/02/05 02:41:26;;;;;;;9.00;4.80;;;;;;;-2.87;72.64;100611.30;105909;1254;59771;-77
2023/02/05 02:43:56;;;;;;;6.30;4.90;;;;;;;-2.87;72.69;100614.05;105921;1256;64442;-77
2023/02/05 02:46:36;;;;;;;5.70;4.80;;;;;;;-2.85;72.71;100615.74;105836;1253;59670;-77
2023/02/05 02:49:05;;;;;;;6.20;4.50;;;;;;;-2.86;72.70;100614.02;106068;1256;59737;-77
2023/02/05 02:51:33;;;;;;;7.00;4.60;;;;;;;-2.86;72.75;100616.95;106025;1259;65750;-78
2023/02/05 02:54:03;;;;;;;5.60;4.60;;;;;;;-2.85;72.81;100617.63;105748;1260;59930;-77
2023/02/05 02:56:30;;;;;;;5.80;4.40;;;;;;;-2.84;72.84;100616.59;105798;1254;65350;-77
2023/02/05 02:59:01;;;;;;;5.80;4.70;;;;;;;-2.85;72.84;100619.85;105906;1253;59538;-77
2023/02/05 03:01:31;;;;;;;6.70;5.30;;;;;;;-2.84;72.79;100623.47;105988;1253;59656;-77
2023/02/05 03:04:01;;;;;;;7.20;4.90;;;;;;;-2.84;72.81;100623.30;105850;1254;65981;-77
2023/02/05 03:06:29;;;;;;;6.20;4.80;;;;;;;-2.84;72.79;100621.05;105837;1259;60055;-77
2023/02/05 03:09:00;;;;;;;6.80;4.60;;;;;;;-2.84;72.81;100621.04;106022;1254;65756;-77
2023/02/05 03:11:28;;;;;;;6.50;4.80;;;;;;;-2.84;72.81;100617.95;105820;1253;60396;-77
2023/02/05 03:13:55;;;;;;;6.00;4.70;;;;;;;-2.85;72.87;100615.38;106048;1254;59728;-77
2023/02/05 03:16:24;;;;;;;6.40;4.60;;;;;;;-2.84;72.90;100615.52;105698;1254;65861;-77
2023/02/05 03:18:53;;;;;;;5.50;4.70;;;;;;;-2.83;72.88;100617.05;106190;1252;59956;-77
2023/02/05 03:21:24;;;;;;;5.50;4.40;;;;;;;-2.82;72.91;100618.92;106086;1254;65517;-78
2023/02/05 03:23:51;;;;;;;7.50;4.70;;;;;;;-2.81;72.90;100622.19;105934;1253;59977;-77
2023/02/05 03:26:26;;;;;;;7.60;5.10;;;;;;;-2.82;72.93;100621.15;105825;1259;60260;-76
2023/02/05 03:28:59;;;;;;;7.20;5.00;;;;;;;-2.82;72.99;100622.73;105985;1256;65569;-77
2023/02/05 03:31:48;;;;;;;6.00;4.70;;;;;;;-2.82;73.03;100619.09;105897;1253;59806;-77
2023/02/05 03:34:27;;;;;;;7.40;4.90;;;;;;;-2.83;73.05;100612.58;106039;1257;65269;-76
2023/02/05 03:36:59;;;;;;;7.50;5.30;;;;;;;-2.84;73.08;100610.89;106062;1254;60428;-77
2023/02/05 03:40:02;;;;;;;7.30;4.80;;;;;;;-2.85;72.97;100611.60;105922;1253;60383;-77
2023/02/05 03:42:53;;;;;;;6.60;4.90;;;;;;;-2.85;73.04;100618.32;105981;1259;66731;-77
2023/02/05 03:45:47;;;;;;;6.50;4.40;;;;;;;-2.85;73.08;100618.32;105649;1253;60504;-77
2023/02/05 03:48:32;;;;;;;6.20;4.90;;;;;;;-2.86;73.12;100618.67;105995;1253;65359;-78
2023/02/05 03:51:22;;;;;;;7.90;5.20;;;;;;;-2.86;73.19;100619.71;105855;1254;60474;-78
2023/02/05 03:53:59;;;;;;;7.10;5.00;;;;;;;-2.85;73.23;100621.42;106008;1256;60339;-77
2023/02/05 03:56:27;;;;;;;6.70;4.80;;;;;;;-2.84;73.27;100622.27;105895;1254;66598;-77
2023/02/05 03:58:55;;;;;;;7.10;5.70;;;;;;;-2.84;73.31;100624.31;106248;1253;60489;-77
2023/02/05 04:01:23;;;;;;;7.40;5.40;;;;;;;-2.82;73.35;100626.52;106100;1252;65722;-77
2023/02/05 04:03:50;;;;;;;6.10;4.70;;;;;;;-2.81;73.32;100626.66;105916;1254;60368;-77
2023/02/05 04:06:17;;;;;;;7.20;5.10;;;;;;;-2.80;73.33;100632.33;105994;1254;60737;-77
2023/02/05 04:08:45;;;;;;;10.00;8.10;;;;;;;-2.81;73.32;100634.40;105900;1256;66582;-77
2023/02/05 04:11:13;;;;;;;8.70;6.30;;;;;;;-2.80;73.36;100639.05;105936;1254;60523;-78
2023/02/05 04:13:42;;;;;;;8.40;7.20;;;;;;;-2.79;73.42;100642.50;105864;1254;65439;-77
2023/02/05 04:16:10;;;;;;;7.60;5.80;;;;;;;-2.78;73.45;100646.79;105909;1254;60514;-77
2023/02/05 04:18:37;;;;;;;7.10;5.40;;;;;;;-2.78;73.51;100646.27;106053;1253;60549;-77
2023/02/05 04:21:04;;;;;;;7.20;5.00;;;;;;;-2.77;73.51;100650.90;105810;1259;66472;-77
2023/02/05 04:23:31;;;;;;;10.10;7.60;;;;;;;-2.76;73.60;100648.46;106171;1256;60344;-77
2023/02/05 04:25:59;;;;;;;9.40;7.90;;;;;;;-2.76;73.65;100650.00;105829;1253;64657;-77
2023/02/05 04:28:32;;;;;;;8.80;6.90;;;;;;;-2.73;73.65;100652.52;106048;1253;60540;-77
2023/02/05 04:31:01;;;;;;;7.50;6.00;;;;;;;-2.71;73.71;100655.40;105949;1254;60511;-77
2023/02/05 04:33:29;;;;;;;7.80;5.50;;;;;;;-2.71;73.77;100658.50;105928;1254;66547;-77
2023/02/05 04:35:57;;;;;;;6.30;5.40;;;;;;;-2.70;73.81;100656.42;106061;1256;60479;-77
2023/02/05 04:38:25;;;;;;;7.30;5.20;;;;;;;-2.70;73.80;100656.60;106031;1253;64546;-77
2023/02/05 04:40:54;;;;;;;10.10;6.20;;;;;;;-2.70;73.82;100658.66;106038;1254;60524;-77
2023/02/05 04:43:21;;;;;;;7.20;5.50;;;;;;;-2.71;73.85;100661.44;106043;1252;60889;-76
2023/02/05 04:45:48;;;;;;;8.70;6.30;;;;;;;-2.70;73.90;100662.30;106028;1258;66555;-77
2023/02/05 04:48:15;;;;;;;8.40;6.60;;;;;;;-2.69;73.88;100662.29;105817;1254;60575;-76
2023/02/05 04:50:42;;;;;;;7.80;5.70;;;;;;;-2.69;73.88;100667.45;106020;1254;65356;-76
2023/02/05 04:53:09;;;;;;;7.60;5.90;;;;;;;-2.70;73.88;100667.46;105960;1253;60351;-77
2023/02/05 04:55:35;;;;;;;8.60;6.10;;;;;;;-2.71;73.89;100672.30;105738;1253;60433;-76
2023/02/05 04:58:02;;;;;;;8.00;6.20;;;;;;;-2.73;73.92;100670.95;106002;1253;66504;-77
2023/02/05 05:00:29;;;;;;;7.90;6.00;;;;;;;-2.72;74.02;100671.45;105932;1254;60478;-77
2023/02/05 05:02:56;;;;;;;7.80;5.60;;;;;;;-2.72;74.05;100671.63;105799;1256;65398;-77
2023/02/05 05:05:23;;;;;;;7.00;5.30;;;;;;;-2.70;74.04;100672.63;105817;1254;60428;-76
2023/02/05 05:07:50;;;;;;;7.60;5.70;;;;;;;-2.68;74.07;100679.15;105909;1254;60358;-76
2023/02/05 05:10:16;;;;;;;8.20;5.40;;;;;;;-2.67;74.07;100684.63;105828;1256;66570;-76
2023/02/05 05:12:43;;;;;;;7.50;5.40;;;;;;;-2.65;74.17;100688.21;105790;1254;60459;-76
2023/02/05 05:15:10;;;;;;;7.00;5.50;;;;;;;-2.64;74.09;100692.67;106032;1252;65293;-76
2023/02/05 05:17:37;;;;;;;6.50;5.50;;;;;;;-2.64;74.15;100698.18;106119;1259;60537;-76
2023/02/05 05:20:05;;;;;;;9.80;6.80;;;;;;;-2.64;74.17;100701.12;105797;1260;60498;-76
2023/02/05 05:22:34;;;;;;;8.40;6.20;;;;;;;-2.64;74.14;100700.59;106338;1253;74901;-76
2023/02/05 05:25:01;;;;;;;6.80;5.70;;;;;;;-2.62;74.17;100702.98;105815;1254;60547;-76
2023/02/05 05:27:28;;;;;;;9.00;6.20;;;;;;;-2.60;74.27;100703.47;106057;1254;65538;-76
2023/02/05 05:29:55;;;;;;;9.70;7.80;;;;;;;-2.59;74.25;100703.44;105977;1254;60453;-76
2023/02/05 05:32:22;;;;;;;10.10;8.50;;;;;;;-2.58;74.29;100705.67;105766;1259;60444;-78
2023/02/05 05:34:49;;;;;;;7.20;5.70;;;;;;;-2.58;74.24;100707.74;106012;1256;66753;-79
2023/02/05 05:37:17;;;;;;;7.20;5.40;;;;;;;-2.60;74.26;100707.95;106382;1254;60453;-78
2023/02/05 05:45:16;;;;;;;6.90;5.30;;;;;;;-2.60;74.30;100708.46;106013;1253;60527;-77
2023/02/05 05:47:44;;;;;;;8.30;5.00;;;;;;;-2.60;74.31;100710.35;106024;1256;66733;-79
2023/02/05 05:50:10;;;;;;;9.40;6.10;;;;;;;-2.58;74.40;100712.39;105956;1254;60426;-76
2023/02/05 05:52:37;;;;;;;21.50;12.80;;;;;;;-2.56;74.37;100713.22;105672;1259;65328;-77
2023/02/05 05:55:05;;;;;;;24.60;16.70;;;;;;;-2.56;74.32;100714.59;106113;1254;60469;-77
2023/02/05 05:57:32;;;;;;;23.10;16.00;;;;;;;-2.58;74.26;100713.77;106319;1254;60332;-77
2023/02/05 05:59:58;;;;;;;15.20;11.20;;;;;;;-2.56;74.27;100715.11;105839;1256;66541;-77
2023/02/05 06:02:25;;;;;;;10.20;7.50;;;;;;;-2.54;74.21;100716.62;105866;1252;60460;-77
2023/02/05 06:04:52;;;;;;;8.30;6.50;;;;;;;-2.53;74.24;100718.66;105720;1259;64387;-77
2023/02/05 06:07:19;;;;;;;7.80;5.70;;;;;;;-2.53;74.31;100720.20;105966;1257;60428;-77
2023/02/05 06:09:46;;;;;;;8.60;6.50;;;;;;;-2.52;74.29;100720.86;105964;1254;60513;-77
2023/02/05 06:12:14;;;;;;;8.30;5.60;;;;;;;-2.50;74.30;100720.85;105886;1256;66867;-77
2023/02/05 06:14:43;;;;;;;6.60;5.30;;;;;;;-2.49;74.31;100719.62;106033;1254;60420;-77
2023/02/05 06:17:09;;;;;;;6.50;4.90;;;;;;;-2.47;74.33;100723.89;106273;1253;65312;-77
2023/02/05 06:19:36;;;;;;;9.10;5.60;;;;;;;-2.46;74.36;100725.41;105726;1254;60524;-77
2023/02/05 06:22:03;;;;;;;6.10;4.80;;;;;;;-2.46;74.34;100730.94;105838;1253;60525;-77
2023/02/05 06:24:30;;;;;;;6.00;4.90;;;;;;;-2.45;74.29;100736.09;105811;1256;66533;-78
2023/02/05 06:26:57;;;;;;;6.50;5.50;;;;;;;-2.44;74.27;100734.50;105921;1254;60542;-78
2023/02/05 06:29:24;;;;;;;6.90;5.30;;;;;;;-2.42;74.31;100737.05;106035;1256;64421;-78
2023/02/05 06:31:51;;;;;;;7.90;5.80;;;;;;;-2.39;74.38;100738.55;106113;1252;60537;-79
2023/02/05 06:34:18;;;;;;;8.00;6.10;;;;;;;-2.36;74.34;100737.45;105869;1256;60462;-76
2023/02/05 06:36:44;;;;;;;9.70;7.90;;;;;;;-2.34;74.22;100740.85;105939;1254;66545;-77
2023/02/05 06:39:12;;;;;;;8.30;6.40;;;;;;;-2.33;74.32;100737.89;105721;1254;60552;-76
2023/02/05 06:41:38;;;;;;;7.30;6.00;;;;;;;-2.32;74.15;100743.58;105929;1256;65590;-76
2023/02/05 06:44:05;;;;;;;8.10;6.00;;;;;;;-2.31;74.19;100746.15;105987;1259;60546;-76
2023/02/05 06:46:32;;;;;;;6.40;4.90;;;;;;;-2.29;74.26;100749.56;105907;1252;60440;-77
2023/02/05 06:48:59;;;;;;;6.40;5.10;;;;;;;-2.28;74.30;100751.08;105935;1252;65639;-76
2023/02/05 06:51:26;;;;;;;7.30;5.10;;;;;;;-2.26;74.29;100754.14;105906;1256;60491;-77
2023/02/05 06:53:56;;;;;;;6.90;5.10;;;;;;;-2.24;74.29;100749.10;105454;1254;65606;-77
2023/02/05 06:56:23;;;;;;;6.40;4.90;;;;;;;-2.22;74.30;100749.92;105914;1253;60427;-78
2023/02/05 06:58:50;;;;;;;6.60;5.00;;;;;;;-2.20;74.22;100752.30;109405;1254;58513;-77
2023/02/05 07:01:16;;;;;;;6.00;4.60;;;;;;;-2.18;74.26;100749.31;109364;1253;65908;-77
2023/02/05 07:03:43;;;;;;;5.90;4.80;;;;;;;-2.15;74.31;100750.95;109471;1253;58565;-77
2023/02/05 07:06:10;;;;;;;6.60;4.90;;;;;;;-2.11;74.33;100751.41;109381;1254;65011;-76
2023/02/05 07:08:37;;;;;;;6.00;4.50;;;;;;;-2.09;74.34;100753.97;109448;1253;58228;-77
2023/02/05 07:11:04;;;;;;;5.50;4.50;;;;;;;-2.07;74.25;100756.48;109542;1254;58039;-77
2023/02/05 07:13:31;;;;;;;6.90;4.70;;;;;;;-2.03;74.28;100746.23;109531;1253;66283;-77
2023/02/05 07:16:01;;;;;;;5.20;4.30;;;;;;;-1.99;74.21;100742.02;109405;1253;58502;-76
2023/02/05 07:18:29;;;;;;;5.80;4.80;;;;;;;-1.95;74.23;100744.50;109507;1253;64011;-77
2023/02/05 07:20:56;;;;;;;5.90;4.60;;;;;;;-1.90;74.23;100744.56;109415;1254;58547;-77
2023/02/05 07:23:23;;;;;;;5.40;4.20;;;;;;;-1.85;74.15;100744.28;109412;1253;58154;-77
2023/02/05 07:25:50;;;;;;;6.50;5.00;;;;;;;-1.83;73.95;100748.39;109528;1253;64926;-77
2023/02/05 07:28:16;;;;;;;6.20;4.70;;;;;;;-1.81;73.93;100741.45;109511;1253;58449;-77
2023/02/05 07:30:43;;;;;;;6.70;5.50;;;;;;;-1.77;74.00;100741.50;109553;1253;64858;-77
2023/02/05 07:33:10;;;;;;;8.50;6.10;;;;;;;-1.71;74.02;100742.94;109571;1254;58115;-77
2023/02/05 07:35:38;;;;;;;6.70;5.40;;;;;;;-1.68;73.95;100741.83;109541;1253;58125;-77
2023/02/05 07:38:05;;;;;;;6.60;4.90;;;;;;;-1.64;73.88;100741.90;109487;1254;65027;-77
2023/02/05 07:40:32;;;;;;;5.80;4.80;;;;;;;-1.60;73.93;100743.71;109268;1253;59087;-77
2023/02/05 07:43:00;;;;;;;6.80;4.80;;;;;;;-1.56;73.88;100747.91;109226;1254;65017;-76
2023/02/05 07:45:31;;;;;;;6.20;5.00;;;;;;;-1.51;73.84;100747.29;109507;1254;58228;-78
2023/02/05 07:47:59;;;;;;;6.00;4.70;;;;;;;-1.47;73.80;100751.14;109217;1253;58315;-78
2023/02/05 07:50:26;;;;;;;5.80;4.50;;;;;;;-1.42;73.82;100751.55;109541;1253;66151;-78
2023/02/05 07:52:54;;;;;;;5.70;4.90;;;;;;;-1.38;73.78;100753.89;109205;1254;59362;-78
2023/02/05 07:55:21;;;;;;;5.70;4.50;;;;;;;-1.34;73.70;100757.25;109367;1259;64709;-78
2023/02/05 07:57:49;;;;;;;6.70;4.50;;;;;;;-1.30;73.54;100758.70;109313;1254;58113;-78
2023/02/05 08:00:17;;;;;;;7.20;5.00;;;;;;;-1.28;73.48;100758.13;109439;1254;58198;-79
2023/02/05 08:02:44;;;;;;;6.60;5.10;;;;;;;-1.27;73.41;100758.27;109547;1253;66274;-79
2023/02/05 08:05:11;;;;;;;6.60;5.10;;;;;;;-1.25;73.29;100762.54;109444;1253;58231;-79
2023/02/05 08:07:39;;;;;;;6.40;4.80;;;;;;;-1.24;73.20;100764.27;109445;1253;64935;-79
2023/02/05 08:10:09;;;;;;;5.70;4.70;;;;;;;-1.23;73.17;100764.05;109364;1254;58346;-78
2023/02/05 08:12:35;;;;;;;6.00;4.90;;;;;;;-1.21;73.13;100763.84;109385;1254;58060;-79
2023/02/05 08:15:06;;;;;;;6.30;4.80;;;;;;;-1.21;73.09;100768.15;109457;1253;65990;-79
2023/02/05 08:17:33;;;;;;;6.40;4.90;;;;;;;-1.22;72.95;100769.39;109401;1253;59395;-79
2023/02/05 08:20:05;;;;;;;5.50;4.40;;;;;;;-1.21;72.98;100773.34;109368;1254;63838;-78
2023/02/05 08:22:34;;;;;;;6.10;4.50;;;;;;;-1.19;73.02;100774.64;109421;1254;58100;-79
2023/02/05 08:25:03;;;;;;;5.40;4.50;;;;;;;-1.17;72.90;100772.35;109416;1254;59312;-78
2023/02/05 08:27:31;;;;;;;6.60;5.00;;;;;;;-1.15;72.90;100772.15;109380;1254;65031;-79
2023/02/05 08:29:57;;;;;;;6.10;4.70;;;;;;;-1.10;72.89;100775.67;109281;1254;58307;-79
2023/02/05 08:32:24;;;;;;;7.80;5.00;;;;;;;-1.06;72.83;100779.17;109429;1254;73901;-77
2023/02/05 08:34:55;;;;;;;5.60;4.50;;;;;;;-1.04;72.74;100782.25;109334;1254;58175;-77
2023/02/05 08:37:22;;;;;;;5.80;4.60;;;;;;;-1.04;72.66;100783.27;109366;1254;58150;-77
2023/02/05 08:39:49;;;;;;;5.80;4.70;;;;;;;-1.04;72.56;100786.56;109404;1257;64856;-77
2023/02/05 08:42:16;;;;;;;6.90;5.10;;;;;;;-1.03;72.56;100787.73;109411;1254;58241;-77
2023/02/05 08:44:43;;;;;;;6.90;5.10;;;;;;;-0.99;72.42;100792.48;109405;1254;63661;-77
2023/02/05 08:47:09;;;;;;;6.30;5.10;;;;;;;-0.99;72.34;100798.85;109187;1254;58018;-77
2023/02/05 08:49:36;;;;;;;6.20;5.40;;;;;;;-1.00;72.27;100798.21;109338;1254;58244;-78
2023/02/05 08:52:04;;;;;;;6.40;5.20;;;;;;;-1.01;72.22;100800.65;109257;1254;64955;-77
2023/02/05 08:54:31;;;;;;;9.20;8.00;;;;;;;-0.99;72.28;100801.98;109419;1254;59102;-78
2023/02/05 08:56:58;;;;;;;7.90;6.60;;;;;;;-0.97;72.32;100804.18;109389;1254;63787;-77
2023/02/05 08:59:25;;;;;;;8.50;6.90;;;;;;;-0.95;72.28;100803.95;109314;1253;58105;-78
2023/02/05 09:01:51;;;;;;;8.30;6.50;;;;;;;-0.93;72.28;100807.19;109312;1254;58246;-79
2023/02/05 09:04:19;;;;;;;8.80;6.20;;;;;;;-0.89;72.29;100807.26;109427;1254;66429;-79
2023/02/05 09:06:47;;;;;;;7.20;5.80;;;;;;;-0.86;72.21;100807.54;109288;1254;58571;-77
2023/02/05 09:09:13;;;;;;;11.10;8.30;;;;;;;-0.85;72.14;100807.86;109163;1254;64806;-78
2023/02/05 09:11:47;;;;;;;11.20;9.50;;;;;;;-0.85;72.11;100809.95;109146;1254;58104;-78
2023/02/05 09:14:14;;;;;;;13.20;9.30;;;;;;;-0.84;72.07;100813.19;109178;1255;58161;-79
2023/02/05 09:16:41;;;;;;;9.10;6.60;;;;;;;-0.81;72.04;100810.52;109314;1254;65999;-78
2023/02/05 09:19:07;;;;;;;7.00;5.50;;;;;;;-0.79;71.98;100812.19;109338;1254;59127;-78
2023/02/05 09:21:36;;;;;;;9.00;6.30;;;;;;;-0.79;71.90;100811.30;109182;1257;64813;-78
2023/02/05 09:24:03;;;;;;;7.60;5.80;;;;;;;-0.78;71.89;100812.86;109151;1254;58150;-79
2023/02/05 09:26:30;;;;;;;7.20;5.90;;;;;;;-0.78;71.84;100814.92;109175;1256;58153;-79
2023/02/05 09:28:57;;;;;;;7.70;5.50;;;;;;;-0.78;71.83;100817.16;109296;1254;66004;-78
2023/02/05 09:31:24;;;;;;;8.50;6.30;;;;;;;-0.78;71.78;100820.98;109190;1254;58243;-78
2023/02/05 09:33:51;;;;;;;6.80;5.70;;;;;;;-0.79;71.80;100824.81;109293;1256;64805;-78
2023/02/05 09:36:19;;;;;;;8.60;6.30;;;;;;;-0.81;71.69;100821.42;109422;1254;58132;-78
2023/02/05 09:38:46;;;;;;;7.30;5.40;;;;;;;-0.83;71.72;100823.89;109306;1256;58212;-76
2023/02/05 09:41:17;;;;;;;7.00;5.40;;;;;;;-0.84;71.71;100823.75;109312;1254;64842;-78
2023/02/05 09:43:58;;;;;;;6.60;5.00;;;;;;;-0.83;71.74;100825.45;109272;1254;58400;-77
2023/02/05 09:46:49;;;;;;;7.90;5.80;;;;;;;-0.82;71.85;100825.05;109396;1254;65267;-78
2023/02/05 09:49:18;;;;;;;7.00;5.40;;;;;;;-0.81;71.83;100826.94;109277;1255;58103;-78
2023/02/05 09:51:55;;;;;;;7.90;5.70;;;;;;;-0.81;71.74;100829.02;109194;1255;58160;-78
2023/02/05 09:54:25;;;;;;;6.80;5.20;;;;;;;-0.83;71.76;100827.34;109316;1255;65851;-78
2023/02/05 09:56:53;;;;;;;17.60;12.50;;;;;;;-0.84;71.71;100830.83;109154;1260;59269;-78
2023/02/05 09:59:21;;;;;;;28.10;21.10;;;;;;;-0.83;71.84;100834.08;109165;1254;65142;-77
2023/02/05 10:01:54;;;;;;;15.10;10.10;;;;;;;-0.82;71.87;100833.19;109238;1254;58299;-77
2023/02/05 10:04:22;;;;;;;;;;;;;;;-0.81;71.91;100833.86;109167;1255;58141;-76
2023/02/05 10:06:51;;;;;;;11.00;7.60;;;;;;;-0.81;72.05;100834.89;109392;1255;66508;-78
2023/02/05 10:09:34;;;;;;;9.50;6.50;;;;;;;-0.80;72.03;100839.54;109358;1256;59694;-77
2023/02/05 10:12:12;;;;;;;13.20;8.50;;;;;;;-0.80;72.08;100840.40;109144;1256;64900;-77
2023/02/05 10:14:43;;;;;;;7.30;6.30;;;;;;;-0.79;72.27;100841.06;109118;1255;58162;-77
2023/02/05 10:17:15;;;;;;;8.90;6.80;;;;;;;-0.77;72.36;100840.34;109378;1255;58197;-77
2023/02/05 10:19:54;;;;;;;9.40;6.70;;;;;;;-0.73;72.46;100840.58;109165;1256;66586;-77
2023/02/05 10:22:39;;;;;;;8.20;6.30;;;;;;;-0.69;72.58;100843.56;109219;1255;59368;-78
2023/02/05 10:25:18;;;;;;;8.80;6.40;;;;;;;-0.67;72.64;100841.97;109343;1259;65167;-77
2023/02/05 10:28:01;;;;;;;8.20;6.40;;;;;;;-0.64;72.65;100839.13;109237;1257;58646;-78
2023/02/05 10:30:40;;;;;;;8.10;6.40;;;;;;;-0.61;72.70;100835.58;109388;1256;58204;-77
2023/02/05 10:33:17;;;;;;;10.20;7.60;;;;;;;-0.58;72.72;100840.18;109232;1257;65528;-77
2023/02/05 10:35:55;;;;;;;21.20;14.90;;;;;;;-0.57;72.76;100837.41;109138;1255;59442;-78
2023/02/05 10:38:24;;;;;;;10.70;7.70;;;;;;;-0.54;72.78;100838.20;109246;1256;64945;-78
2023/02/05 10:40:53;;;;;;;8.80;6.70;;;;;;;-0.53;72.68;100837.10;109207;1255;58192;-74
2023/02/05 10:43:39;;;;;;;8.80;6.80;;;;;;;-0.51;72.77;100838.80;109144;1257;58163;-74
2023/02/05 10:46:11;;;;;;;8.80;6.60;;;;;;;-0.49;72.83;100838.73;109113;1255;64874;-73
2023/02/05 10:48:47;;;;;;;8.30;6.60;;;;;;;-0.48;72.83;100836.45;109386;1256;59192;-76
2023/02/05 10:51:22;;;;;;;9.80;7.40;;;;;;;-0.47;72.76;100836.27;109221;1255;65422;-74
2023/02/05 10:53:49;;;;;;;8.50;6.40;;;;;;;-0.46;72.77;100831.58;109110;1257;58194;-74
2023/02/05 10:56:17;;;;;;;10.50;7.30;;;;;;;-0.45;72.85;100837.08;109378;1257;58129;-73
2023/02/05 10:58:54;;;;;;;11.50;7.20;;;;;;;-0.43;72.86;100840.28;109263;1257;66273;-73
2023/02/05 11:01:24;;;;;;;9.10;7.00;;;;;;;-0.40;72.80;100838.48;109258;1256;59256;-74
2023/02/05 11:03:52;;;;;;;9.50;7.20;;;;;;;-0.39;72.78;100841.23;109258;1256;65186;-76
2023/02/05 11:06:20;;;;;;;10.60;7.70;;;;;;;-0.37;72.78;100844.12;109124;1256;58178;-76
2023/02/05 11:08:47;;;;;;;77.80;48.10;;;;;;;-0.34;72.79;100841.80;109224;1257;58140;-76
2023/02/05 11:11:26;;;;;;;112.50;64.10;;;;;;;-0.34;72.79;100846.45;109265;1257;66431;-76
2023/02/05 11:13:56;;;;;;;71.50;37.90;;;;;;;-0.34;72.84;100844.71;109095;1256;58321;-74
2023/02/05 11:16:40;;;;;;;35.60;20.20;;;;;;;-0.32;72.89;100844.66;109226;1257;65107;-78
2023/02/05 11:19:20;;;;;;;27.70;15.80;;;;;;;-0.31;72.90;100848.27;109136;1256;58085;-79
2023/02/05 11:21:51;;;;;;;43.10;24.60;;;;;;;-0.29;72.95;100849.45;109223;1256;58081;-75
2023/02/05 11:24:28;;;;;;;58.50;32.70;;;;;;;-0.26;73.04;100851.44;109222;1257;65714;-74
2023/02/05 11:27:26;;;;;;;32.10;18.30;;;;;;;-0.22;73.04;100847.85;109106;1256;59397;-73
2023/02/05 11:29:54;;;;;;;20.80;13.00;;;;;;;-0.18;73.06;100847.41;109289;1256;64820;-75
2023/02/05 11:32:33;;;;;;;16.80;11.20;;;;;;;-0.15;73.11;100849.57;109036;1256;58088;-73
2023/02/05 11:35:23;;;;;;;37.20;22.40;;;;;;;-0.11;73.11;100851.00;109149;1257;58086;-76